Time;durP1;ratioP1;P1;durP2;ratioP2;P2;SDS_P1;SDS_P2;PMS_P1;PMS_P2;Temp;Humidity;BMP_temperature;BMP_pressure;BME280_temperature;BME280_humidity;BME280_pressure;Samples;Min_cycle;Max_cycle;Signal;HPM_P1;HPM_P2
2021/05/15 00:02:08;;;;;;;16.75;11.15;;;;;;;;;;4404637;32;20649;-72
2021/05/15 00:04:34;;;;;;;21.08;11.12;;;;;;;;;;4418258;32;20268;-72
2021/05/15 00:06:59;;;;;;;23.60;12.05;;;;;;;;;;4419589;32;20156;-72
2021/05/15 00:09:24;;;;;;;20.73;11.97;;;;;;;;;;4404567;32;20158;-73
2021/05/15 00:11:49;;;;;;;19.35;11.32;;;;;;;;;;4419589;32;20407;-73
2021/05/15 00:14:14;;;;;;;22.67;11.80;;;;;;;;;;4417827;32;20134;-74
2021/05/15 00:16:39;;;;;;;21.90;11.63;;;;;;;;;;4420195;32;20249;-73
2021/05/15 00:19:05;;;;;;;22.67;11.65;;;;;;;;;;4418403;32;20637;-74
2021/05/15 00:21:30;;;;;;;20.65;11.80;;;;;;;;;;4404016;32;20161;-74
2021/05/15 00:23:55;;;;;;;20.12;12.02;;;;;;;;;;4405941;32;20165;-73
2021/05/15 00:26:21;;;;;;;19.85;11.55;;;;;;;;;;4418628;32;20153;-73
2021/05/15 00:28:46;;;;;;;19.85;11.68;;;;;;;;;;4403714;32;20292;-73
2021/05/15 00:31:11;;;;;;;18.52;11.12;;;;;;;;;;4419444;32;20133;-73
2021/05/15 00:33:36;;;;;;;22.95;12.13;;;;;;;;;;4420009;32;20518;-73
2021/05/15 00:36:02;;;;;;;23.13;12.90;;;;;;;;;;4418360;32;20165;-73
2021/05/15 00:38:27;;;;;;;21.43;11.93;;;;;;;;;;4418675;32;20153;-74
2021/05/15 00:40:53;;;;;;;20.87;12.33;;;;;;;;;;4420327;32;20287;-73
2021/05/15 00:43:18;;;;;;;22.85;13.07;;;;;;;;;;4419134;32;20156;-73
2021/05/15 00:45:44;;;;;;;22.20;13.00;;;;;;;;;;4418342;32;20146;-73
2021/05/15 00:48:09;;;;;;;26.35;12.02;;;;;;;;;;4417650;32;20157;-73
2021/05/15 00:50:35;;;;;;;23.25;12.05;;;;;;;;;;4419439;32;20142;-73
2021/05/15 00:53:02;;;;;;;21.27;12.00;;;;;;;;;;4417176;32;20176;-73
2021/05/15 00:55:27;;;;;;;21.45;12.88;;;;;;;;;;4403483;32;20207;-73
2021/05/15 00:57:53;;;;;;;23.67;13.25;;;;;;;;;;4417978;32;20134;-72
2021/05/15 01:00:18;;;;;;;21.15;12.43;;;;;;;;;;4403734;32;20188;-72
2021/05/15 01:02:44;;;;;;;23.10;14.32;;;;;;;;;;4417238;32;20129;-72
2021/05/15 01:05:10;;;;;;;20.35;12.35;;;;;;;;;;4403859;32;20595;-73
2021/05/15 01:07:35;;;;;;;19.85;12.27;;;;;;;;;;4417806;32;20321;-73
2021/05/15 01:10:01;;;;;;;20.52;11.70;;;;;;;;;;4417731;32;20141;-73
2021/05/15 01:12:26;;;;;;;19.05;11.18;;;;;;;;;;4417420;32;20188;-72
2021/05/15 01:14:51;;;;;;;19.48;11.52;;;;;;;;;;4419026;32;20229;-72
2021/05/15 01:17:16;;;;;;;21.25;11.35;;;;;;;;;;4417293;32;20514;-72
2021/05/15 01:19:42;;;;;;;21.23;11.43;;;;;;;;;;4417075;32;20126;-72
2021/05/15 01:22:08;;;;;;;20.12;11.30;;;;;;;;;;4405109;32;20249;-73
2021/05/15 01:24:34;;;;;;;20.37;11.15;;;;;;;;;;4403667;32;20173;-72
2021/05/15 01:27:00;;;;;;;19.40;11.32;;;;;;;;;;4418010;32;20161;-73
2021/05/15 01:29:25;;;;;;;21.25;11.23;;;;;;;;;;4419214;32;20153;-72
2021/05/15 01:31:50;;;;;;;18.77;11.45;;;;;;;;;;4417265;32;20461;-72
2021/05/15 01:34:15;;;;;;;19.87;11.40;;;;;;;;;;4418819;32;20158;-72
2021/05/15 01:36:42;;;;;;;19.60;11.02;;;;;;;;;;4417720;32;20225;-72
2021/05/15 01:39:09;;;;;;;20.73;11.57;;;;;;;;;;4418419;32;20614;-72
2021/05/15 01:41:34;;;;;;;22.77;12.82;;;;;;;;;;4417351;32;20201;-72
2021/05/15 01:43:59;;;;;;;19.95;11.52;;;;;;;;;;4416836;32;20608;-72
2021/05/15 01:46:25;;;;;;;22.20;12.00;;;;;;;;;;4416900;32;20184;-73
2021/05/15 01:48:50;;;;;;;23.02;12.37;;;;;;;;;;4418623;32;20137;-73
2021/05/15 01:51:15;;;;;;;20.95;12.37;;;;;;;;;;4418444;32;20138;-73
2021/05/15 01:53:42;;;;;;;22.67;12.15;;;;;;;;;;4418614;32;20239;-74
2021/05/15 01:56:08;;;;;;;21.08;12.40;;;;;;;;;;4417257;32;20188;-73
2021/05/15 01:58:33;;;;;;;20.73;12.02;;;;;;;;;;4416411;32;20472;-73
2021/05/15 02:00:58;;;;;;;21.15;12.25;;;;;;;;;;4417267;32;20127;-73
2021/05/15 02:03:25;;;;;;;19.58;12.80;;;;;;;;;;4418546;32;20191;-74
2021/05/15 02:05:51;;;;;;;25.27;13.43;;;;;;;;;;4416737;32;20141;-73
2021/05/15 02:08:16;;;;;;;23.80;12.88;;;;;;;;;;4416755;32;20134;-73
2021/05/15 02:10:42;;;;;;;25.37;13.68;;;;;;;;;;4403069;32;20246;-72
2021/05/15 02:13:07;;;;;;;22.85;12.50;;;;;;;;;;4418365;32;20245;-73
2021/05/15 02:15:32;;;;;;;24.60;13.95;;;;;;;;;;4416586;32;20130;-73
2021/05/15 02:17:58;;;;;;;22.67;12.88;;;;;;;;;;4417167;32;20126;-72
2021/05/15 02:20:24;;;;;;;21.65;13.13;;;;;;;;;;4416814;32;20164;-72
2021/05/15 02:22:49;;;;;;;24.60;14.07;;;;;;;;;;4418767;32;20651;-72
2021/05/15 02:25:14;;;;;;;26.20;14.10;;;;;;;;;;4418555;32;20134;-72
2021/05/15 02:27:39;;;;;;;22.80;13.35;;;;;;;;;;4416972;32;20160;-73
2021/05/15 02:30:05;;;;;;;23.27;12.93;;;;;;;;;;4419261;32;20482;-73
2021/05/15 02:32:30;;;;;;;21.08;12.85;;;;;;;;;;4419609;32;20249;-71
2021/05/15 02:34:55;;;;;;;26.12;14.32;;;;;;;;;;4419507;32;20157;-71
2021/05/15 02:37:21;;;;;;;24.33;13.43;;;;;;;;;;4421129;32;20138;-71
2021/05/15 02:39:46;;;;;;;24.42;13.43;;;;;;;;;;4419008;32;20165;-71
2021/05/15 02:42:11;;;;;;;20.85;12.23;;;;;;;;;;4420299;32;20189;-72
2021/05/15 02:44:36;;;;;;;24.80;14.27;;;;;;;;;;4419742;32;20188;-72
2021/05/15 02:47:01;;;;;;;26.17;14.05;;;;;;;;;;4419764;32;20287;-72
2021/05/15 02:49:27;;;;;;;23.80;13.52;;;;;;;;;;4419795;32;20130;-72
2021/05/15 02:51:52;;;;;;;24.35;13.35;;;;;;;;;;4418792;32;20248;-72
2021/05/15 02:54:17;;;;;;;24.90;13.02;;;;;;;;;;4419781;32;20141;-72
2021/05/15 02:56:42;;;;;;;27.23;13.57;;;;;;;;;;4420465;32;20510;-73
2021/05/15 02:59:07;;;;;;;21.98;13.48;;;;;;;;;;4419530;32;20518;-71
2021/05/15 03:01:32;;;;;;;23.73;13.10;;;;;;;;;;4418772;32;20228;-71
2021/05/15 03:03:58;;;;;;;22.70;12.48;;;;;;;;;;4419041;32;20276;-71
2021/05/15 03:06:23;;;;;;;23.00;13.15;;;;;;;;;;4419584;32;20503;-71
2021/05/15 03:08:48;;;;;;;21.55;13.27;;;;;;;;;;4420436;32;20503;-71
2021/05/15 03:11:13;;;;;;;25.80;14.73;;;;;;;;;;4420250;32;20154;-71
2021/05/15 03:13:39;;;;;;;25.27;14.40;;;;;;;;;;4418859;32;20137;-71
2021/05/15 03:16:04;;;;;;;34.70;16.27;;;;;;;;;;4420071;32;20138;-71
2021/05/15 03:18:29;;;;;;;27.80;13.75;;;;;;;;;;4420567;32;20389;-72
2021/05/15 03:20:55;;;;;;;24.83;12.68;;;;;;;;;;4418733;32;20347;-72
2021/05/15 03:23:20;;;;;;;22.90;12.55;;;;;;;;;;4406447;32;20208;-72
2021/05/15 03:25:46;;;;;;;29.87;14.73;;;;;;;;;;4420070;32;20178;-72
2021/05/15 03:28:11;;;;;;;23.62;13.70;;;;;;;;;;4419014;32;20153;-72
2021/05/15 03:30:36;;;;;;;21.70;12.80;;;;;;;;;;4419372;32;20371;-72
2021/05/15 03:33:01;;;;;;;26.15;14.00;;;;;;;;;;4420416;32;20624;-72
2021/05/15 03:35:28;;;;;;;28.60;15.05;;;;;;;;;;4420041;32;20212;-72
2021/05/15 03:37:53;;;;;;;24.20;12.82;;;;;;;;;;4420368;32;20186;-72
2021/05/15 03:40:18;;;;;;;30.25;14.98;;;;;;;;;;4418494;32;20154;-73
2021/05/15 03:42:43;;;;;;;22.23;13.82;;;;;;;;;;4405688;32;20581;-72
2021/05/15 03:45:09;;;;;;;24.30;13.40;;;;;;;;;;4418341;32;20152;-72
2021/05/15 03:47:35;;;;;;;19.83;12.98;;;;;;;;;;4419154;32;20180;-71
2021/05/15 03:50:00;;;;;;;27.02;13.82;;;;;;;;;;4419644;32;20541;-72
2021/05/15 03:52:25;;;;;;;23.77;14.43;;;;;;;;;;4418757;32;20126;-72
2021/05/15 03:54:50;;;;;;;27.85;14.45;;;;;;;;;;4420333;32;20219;-72
2021/05/15 03:57:15;;;;;;;29.98;15.57;;;;;;;;;;4419677;32;20518;-73
2021/05/15 03:59:40;;;;;;;25.52;14.45;;;;;;;;;;4419771;32;20282;-71
2021/05/15 04:02:06;;;;;;;24.75;15.23;;;;;;;;;;4419375;32;20232;-72
2021/05/15 04:04:33;;;;;;;25.17;13.55;;;;;;;;;;4417663;32;20276;-72
2021/05/15 04:06:58;;;;;;;25.65;14.02;;;;;;;;;;4417672;32;20152;-73
2021/05/15 04:09:23;;;;;;;24.85;13.90;;;;;;;;;;4418112;32;20191;-71
2021/05/15 04:11:49;;;;;;;25.42;13.15;;;;;;;;;;4417984;32;20309;-72
2021/05/15 04:17:28;;;;;;;23.10;12.65;;;;;;;;;;4417684;32;20208;-71
2021/05/15 04:19:28;;;;;;;32.03;14.60;;;;;;;;;;4407462;32;20488;-72
2021/05/15 04:21:54;;;;;;;24.60;13.35;;;;;;;;;;4417573;32;20191;-72
2021/05/15 04:24:20;;;;;;;21.15;12.80;;;;;;;;;;4417401;32;20523;-71
2021/05/15 04:26:45;;;;;;;20.08;12.63;;;;;;;;;;4418878;32;20138;-72
2021/05/15 04:29:10;;;;;;;27.65;14.02;;;;;;;;;;4419283;32;20426;-72
2021/05/15 04:31:36;;;;;;;26.62;14.95;;;;;;;;;;4417657;32;20261;-73
2021/05/15 04:34:01;;;;;;;26.65;13.68;;;;;;;;;;4419777;32;20153;-72
2021/05/15 04:36:26;;;;;;;27.98;14.57;;;;;;;;;;4418750;32;20260;-72
2021/05/15 04:38:52;;;;;;;25.83;13.02;;;;;;;;;;4419060;32;20164;-72
2021/05/15 04:41:20;;;;;;;21.77;13.23;;;;;;;;;;4417812;32;20269;-70
2021/05/15 04:43:46;;;;;;;22.98;12.73;;;;;;;;;;4418763;32;20508;-71
2021/05/15 04:46:11;;;;;;;22.13;12.00;;;;;;;;;;4417929;32;20196;-71
2021/05/15 04:48:38;;;;;;;24.45;13.38;;;;;;;;;;4403331;32;20584;-71
2021/05/15 04:51:03;;;;;;;22.87;11.93;;;;;;;;;;4417307;32;20192;-71
2021/05/15 04:53:30;;;;;;;24.58;13.93;;;;;;;;;;4418426;32;20493;-71
2021/05/15 04:55:55;;;;;;;28.27;12.60;;;;;;;;;;4417451;32;20194;-71
2021/05/15 04:58:20;;;;;;;26.30;13.48;;;;;;;;;;4419372;32;20187;-71
2021/05/15 05:00:46;;;;;;;29.00;15.43;;;;;;;;;;4404245;32;20320;-72
2021/05/15 05:03:14;;;;;;;27.20;13.93;;;;;;;;;;4403703;32;20670;-72
2021/05/15 05:05:39;;;;;;;24.50;13.60;;;;;;;;;;4418956;32;20545;-71
2021/05/15 05:08:04;;;;;;;28.77;14.20;;;;;;;;;;4417728;32;20134;-72
2021/05/15 05:10:29;;;;;;;24.12;13.82;;;;;;;;;;4417172;32;20275;-72
2021/05/15 05:12:54;;;;;;;26.65;13.00;;;;;;;;;;4419314;32;20360;-72
2021/05/15 05:15:20;;;;;;;25.00;12.45;;;;;;;;;;4417364;32;20245;-72
2021/05/15 05:17:45;;;;;;;21.10;11.93;;;;;;;;;;4419158;32;20320;-71
2021/05/15 05:20:10;;;;;;;20.55;11.80;;;;;;;;;;4418930;32;20327;-72
2021/05/15 05:22:35;;;;;;;19.92;11.23;;;;;;;;;;4416905;32;20241;-71
2021/05/15 05:25:00;;;;;;;21.10;11.27;;;;;;;;;;4419262;32;20545;-71
2021/05/15 05:27:26;;;;;;;20.08;10.98;;;;;;;;;;4417691;32;20252;-72
2021/05/15 05:29:51;;;;;;;19.92;11.02;;;;;;;;;;4416565;32;20206;-71
2021/05/15 05:32:16;;;;;;;16.90;10.65;;;;;;;;;;4418569;32;20188;-72
2021/05/15 05:34:42;;;;;;;19.05;9.85;;;;;;;;;;4416320;32;20436;-72
2021/05/15 05:37:07;;;;;;;19.52;11.07;;;;;;;;;;4416710;32;20168;-71
2021/05/15 05:39:33;;;;;;;19.10;9.82;;;;;;;;;;4417134;32;20228;-71
2021/05/15 05:41:59;;;;;;;15.32;9.38;;;;;;;;;;4404360;32;20161;-71
2021/05/15 05:44:24;;;;;;;16.35;9.30;;;;;;;;;;4402995;32;20245;-72
2021/05/15 05:46:49;;;;;;;18.17;10.73;;;;;;;;;;4416303;32;20161;-71
2021/05/15 05:49:15;;;;;;;19.27;10.67;;;;;;;;;;4403130;32;20235;-71
2021/05/15 05:51:40;;;;;;;24.83;11.45;;;;;;;;;;4417278;32;20138;-71
2021/05/15 05:54:05;;;;;;;18.12;10.70;;;;;;;;;;4416762;32;20658;-71
2021/05/15 05:56:30;;;;;;;16.40;10.65;;;;;;;;;;4416738;32;20187;-72
2021/05/15 05:58:56;;;;;;;21.80;10.80;;;;;;;;;;4418435;32;20423;-71
2021/05/15 06:01:22;;;;;;;23.12;11.12;;;;;;;;;;4418342;32;20446;-71
2021/05/15 06:03:47;;;;;;;16.45;10.85;;;;;;;;;;4405841;32;20201;-71
2021/05/15 06:06:12;;;;;;;14.85;9.77;;;;;;;;;;4421509;32;20261;-71
2021/05/15 06:08:37;;;;;;;17.17;9.90;;;;;;;;;;4419670;32;20661;-71
2021/05/15 06:11:03;;;;;;;16.05;10.68;;;;;;;;;;4419894;32;20198;-72
2021/05/15 06:13:28;;;;;;;12.10;8.93;;;;;;;;;;4421830;32;20169;-72
2021/05/15 06:15:53;;;;;;;16.75;10.05;;;;;;;;;;4420822;32;20134;-72
2021/05/15 06:18:19;;;;;;;18.85;9.95;;;;;;;;;;4420947;32;20137;-72
2021/05/15 06:20:45;;;;;;;18.12;10.75;;;;;;;;;;4421645;32;20459;-72
2021/05/15 06:23:10;;;;;;;16.15;9.80;;;;;;;;;;4419680;32;20483;-72
2021/05/15 06:25:35;;;;;;;16.75;9.50;;;;;;;;;;4419710;32;20503;-72
2021/05/15 06:28:00;;;;;;;19.55;9.57;;;;;;;;;;4420200;32;20151;-72
2021/05/15 06:30:26;;;;;;;17.70;10.23;;;;;;;;;;4421782;32;20210;-74
2021/05/15 06:32:51;;;;;;;17.37;11.25;;;;;;;;;;4420848;32;20320;-74
2021/05/15 06:35:16;;;;;;;16.55;11.15;;;;;;;;;;4421476;32;20165;-74
2021/05/15 06:37:41;;;;;;;20.58;11.38;;;;;;;;;;4420360;32;20305;-74
2021/05/15 06:40:07;;;;;;;16.90;9.93;;;;;;;;;;4420899;32;20174;-74
2021/05/15 06:42:32;;;;;;;17.25;10.77;;;;;;;;;;4419314;32;20206;-73
2021/05/15 06:44:58;;;;;;;18.83;11.68;;;;;;;;;;4420721;32;20144;-73
2021/05/15 06:47:23;;;;;;;21.20;12.10;;;;;;;;;;4419128;32;20188;-73
2021/05/15 06:49:49;;;;;;;15.45;10.50;;;;;;;;;;4405702;32;20161;-72
2021/05/15 06:52:14;;;;;;;15.68;10.63;;;;;;;;;;4421382;32;20515;-74
2021/05/15 06:54:40;;;;;;;17.83;10.82;;;;;;;;;;4430169;32;20192;-72
2021/05/15 06:57:06;;;;;;;18.27;11.80;;;;;;;;;;4450279;32;20140;-73
2021/05/15 06:59:32;;;;;;;22.55;12.52;;;;;;;;;;4451726;32;20138;-73
2021/05/15 07:01:57;;;;;;;18.87;12.15;;;;;;;;;;4450445;32;20169;-73
2021/05/15 07:04:23;;;;;;;20.40;12.43;;;;;;;;;;4450922;32;20256;-72
2021/05/15 07:06:48;;;;;;;22.17;12.25;;;;;;;;;;4450329;32;20274;-73
2021/05/15 07:09:14;;;;;;;25.60;13.27;;;;;;;;;;4448751;32;20145;-73
2021/05/15 07:11:39;;;;;;;26.83;16.17;;;;;;;;;;4433636;32;20060;-74
2021/05/15 07:14:04;;;;;;;22.75;14.13;;;;;;;;;;4428072;32;20168;-70
2021/05/15 07:16:30;;;;;;;20.80;12.23;;;;;;;;;;4432085;32;20420;-70
2021/05/15 07:18:55;;;;;;;24.85;13.13;;;;;;;;;;4433832;32;20312;-72
2021/05/15 07:21:20;;;;;;;22.40;11.73;;;;;;;;;;4434158;32;20152;-70
2021/05/15 07:23:45;;;;;;;22.10;12.57;;;;;;;;;;4421092;32;20264;-69
2021/05/15 07:26:11;;;;;;;26.20;12.73;;;;;;;;;;4434244;32;20617;-70
2021/05/15 07:28:36;;;;;;;17.17;11.18;;;;;;;;;;4417102;32;20864;-70
2021/05/15 07:31:01;;;;;;;18.37;12.10;;;;;;;;;;4419185;32;20276;-70
2021/05/15 07:33:27;;;;;;;21.37;12.02;;;;;;;;;;4420497;32;20576;-70
2021/05/15 07:35:52;;;;;;;17.87;12.23;;;;;;;;;;4433164;32;20191;-70
2021/05/15 07:38:18;;;;;;;20.45;12.65;;;;;;;;;;4434291;32;20189;-70
2021/05/15 07:40:43;;;;;;;20.95;12.77;;;;;;;;;;4424932;32;20204;-70
2021/05/15 07:43:09;;;;;;;17.30;11.90;;;;;;;;;;4417935;32;20145;-69
2021/05/15 07:45:34;;;;;;;20.85;11.23;;;;;;;;;;4419431;32;20498;-68
2021/05/15 07:48:00;;;;;;;20.70;11.57;;;;;;;;;;4403992;32;20286;-69
2021/05/15 07:50:26;;;;;;;16.75;11.25;;;;;;;;;;4433968;32;20160;-69
2021/05/15 07:52:51;;;;;;;20.20;12.65;;;;;;;;;;4433670;32;20133;-69
2021/05/15 07:55:16;;;;;;;18.00;10.52;;;;;;;;;;4434621;32;20199;-69
2021/05/15 07:57:41;;;;;;;17.02;9.55;;;;;;;;;;4433314;32;20138;-69
2021/05/15 08:00:06;;;;;;;20.12;12.00;;;;;;;;;;4434235;32;20222;-68
2021/05/15 08:02:32;;;;;;;16.77;11.45;;;;;;;;;;4433129;32;20225;-70
2021/05/15 08:04:58;;;;;;;20.55;11.88;;;;;;;;;;4433667;32;20612;-72
2021/05/15 08:07:23;;;;;;;21.17;11.50;;;;;;;;;;4432489;32;20164;-72
2021/05/15 08:09:48;;;;;;;23.55;11.18;;;;;;;;;;4420587;32;20261;-72
2021/05/15 08:12:14;;;;;;;16.37;9.15;;;;;;;;;;4418698;32;20179;-73
2021/05/15 08:14:39;;;;;;;14.95;8.88;;;;;;;;;;4417791;32;20141;-68
2021/05/15 08:17:04;;;;;;;15.23;9.35;;;;;;;;;;4419125;32;20138;-69
2021/05/15 08:19:29;;;;;;;15.18;9.07;;;;;;;;;;4417559;32;20192;-69
2021/05/15 08:21:54;;;;;;;14.95;10.05;;;;;;;;;;4417075;32;20543;-71
2021/05/15 08:24:20;;;;;;;17.37;9.98;;;;;;;;;;4403129;32;20174;-69
2021/05/15 08:26:45;;;;;;;15.77;8.20;;;;;;;;;;4416924;32;20705;-70
2021/05/15 08:29:13;;;;;;;13.27;8.30;;;;;;;;;;4414780;32;20200;-70
2021/05/15 08:31:39;;;;;;;13.25;7.60;;;;;;;;;;4434008;32;20171;-70
2021/05/15 08:34:04;;;;;;;13.25;8.00;;;;;;;;;;4418233;32;20165;-70
2021/05/15 08:36:29;;;;;;;12.25;7.37;;;;;;;;;;4419330;32;20207;-71
2021/05/15 08:38:56;;;;;;;13.05;8.15;;;;;;;;;;4411456;32;20574;-70
2021/05/15 08:41:21;;;;;;;16.70;8.35;;;;;;;;;;4404029;32;20158;-71
2021/05/15 08:43:47;;;;;;;13.20;8.10;;;;;;;;;;4417404;32;20239;-70
2021/05/15 08:46:13;;;;;;;12.43;8.45;;;;;;;;;;4417975;32;20227;-71
2021/05/15 08:48:39;;;;;;;12.10;7.82;;;;;;;;;;4419627;32;20197;-68
2021/05/15 08:51:05;;;;;;;10.82;7.07;;;;;;;;;;4432227;32;20164;-69
2021/05/15 08:53:30;;;;;;;11.95;7.62;;;;;;;;;;4433040;32;20134;-69
2021/05/15 08:55:55;;;;;;;14.23;7.90;;;;;;;;;;4432709;32;20513;-68
2021/05/15 08:58:21;;;;;;;11.48;7.25;;;;;;;;;;4432621;32;20470;-68
2021/05/15 09:00:47;;;;;;;11.82;6.93;;;;;;;;;;4433628;32;20128;-69
2021/05/15 09:03:13;;;;;;;13.02;8.13;;;;;;;;;;4434510;32;20166;-71
2021/05/15 09:05:40;;;;;;;12.70;8.80;;;;;;;;;;4420999;32;20218;-70
2021/05/15 09:08:09;;;;;;;12.55;8.10;;;;;;;;;;4430142;32;20184;-69
2021/05/15 09:10:36;;;;;;;14.82;8.93;;;;;;;;;;4433656;32;20133;-69
2021/05/15 09:13:19;;;;;;;12.93;8.57;;;;;;;;;;4433907;32;20130;-71
2021/05/15 09:15:44;;;;;;;16.67;9.30;;;;;;;;;;4436351;32;20164;-73
2021/05/15 09:18:12;;;;;;;17.87;10.23;;;;;;;;;;4434810;32;20126;-69
2021/05/15 09:20:38;;;;;;;17.95;10.15;;;;;;;;;;4435727;32;20291;-70
2021/05/15 09:23:10;;;;;;;14.63;9.25;;;;;;;;;;4413511;32;20184;-70
2021/05/15 09:25:35;;;;;;;15.45;9.82;;;;;;;;;;4417607;32;20161;-69
2021/05/15 09:28:00;;;;;;;16.80;10.65;;;;;;;;;;4418989;32;20205;-68
2021/05/15 09:30:29;;;;;;;17.80;10.40;;;;;;;;;;4418373;32;20134;-69
2021/05/15 09:32:54;;;;;;;15.80;10.40;;;;;;;;;;4419834;32;20233;-70
2021/05/15 09:35:21;;;;;;;15.77;10.27;;;;;;;;;;4432792;32;20441;-69
2021/05/15 09:37:48;;;;;;;15.35;9.93;;;;;;;;;;4434044;32;20197;-68
2021/05/15 09:40:28;;;;;;;17.87;11.43;;;;;;;;;;4432335;32;20526;-70
2021/05/15 09:42:54;;;;;;;17.52;11.15;;;;;;;;;;4435380;32;20137;-72
2021/05/15 09:45:21;;;;;;;16.90;12.63;;;;;;;;;;4432747;32;20280;-72
2021/05/15 09:47:50;;;;;;;19.65;11.85;;;;;;;;;;4405942;32;20594;-72
2021/05/15 09:50:16;;;;;;;19.10;12.43;;;;;;;;;;4420068;32;20168;-72
2021/05/15 09:52:47;;;;;;;21.98;12.85;;;;;;;;;;4423753;32;20138;-74
2021/05/15 09:55:12;;;;;;;17.92;12.93;;;;;;;;;;4419682;32;21742;-72
2021/05/15 09:57:38;;;;;;;20.90;14.07;;;;;;;;;;4433641;32;20141;-71
2021/05/15 10:00:10;;;;;;;19.87;13.45;;;;;;;;;;4433844;32;20133;-71
2021/05/15 10:02:36;;;;;;;20.83;13.07;;;;;;;;;;4435446;32;20526;-72
2021/05/15 10:05:11;;;;;;;22.98;13.77;;;;;;;;;;4435186;32;20122;-72
2021/05/15 10:07:37;;;;;;;20.48;13.40;;;;;;;;;;4422079;32;20164;-71
2021/05/15 10:10:04;;;;;;;22.40;14.13;;;;;;;;;;4419296;32;20141;-71
2021/05/15 10:12:29;;;;;;;23.58;14.40;;;;;;;;;;4418495;32;20499;-71
2021/05/15 10:14:56;;;;;;;21.73;15.18;;;;;;;;;;4437410;32;20239;-70
2021/05/15 10:17:21;;;;;;;24.52;15.65;;;;;;;;;;4448409;32;20212;-72
2021/05/15 10:19:46;;;;;;;27.30;16.15;;;;;;;;;;4450419;32;20128;-72
2021/05/15 10:22:11;;;;;;;27.40;16.95;;;;;;;;;;4449193;32;20228;-71
2021/05/15 10:24:37;;;;;;;29.12;17.60;;;;;;;;;;4449754;32;20231;-71
2021/05/15 10:27:07;;;;;;;27.58;17.25;;;;;;;;;;4442069;32;20145;-72
2021/05/15 10:29:38;;;;;;;28.85;17.45;;;;;;;;;;4435195;32;20244;-72
2021/05/15 10:32:04;;;;;;;31.50;18.30;;;;;;;;;;4444879;32;20137;-71
2021/05/15 10:34:30;;;;;;;25.77;17.40;;;;;;;;;;4435113;32;20318;-72
2021/05/15 10:36:55;;;;;;;28.77;17.77;;;;;;;;;;4448667;32;20432;-72
2021/05/15 10:39:26;;;;;;;30.65;18.73;;;;;;;;;;4448775;32;20178;-73
2021/05/15 10:41:51;;;;;;;31.20;19.05;;;;;;;;;;4449476;32;20160;-72
2021/05/15 10:44:16;;;;;;;31.23;18.87;;;;;;;;;;4436360;32;20189;-70
2021/05/15 10:46:45;;;;;;;35.25;21.92;;;;;;;;;;4433306;32;20247;-71
2021/05/15 10:49:16;;;;;;;34.60;22.17;;;;;;;;;;4420345;32;20225;-73
2021/05/15 10:51:42;;;;;;;33.55;21.48;;;;;;;;;;4437310;32;20171;-71
2021/05/15 10:54:09;;;;;;;37.20;23.08;;;;;;;;;;4437337;32;20215;-71
2021/05/15 10:56:34;;;;;;;38.90;24.85;;;;;;;;;;4423475;32;20224;-72
2021/05/15 10:59:00;;;;;;;38.55;24.35;;;;;;;;;;4423496;32;20180;-72
2021/05/15 11:01:27;;;;;;;44.22;26.40;;;;;;;;;;4422357;32;20161;-72
2021/05/15 11:03:52;;;;;;;37.65;24.87;;;;;;;;;;4435794;32;20145;-72
2021/05/15 11:06:18;;;;;;;41.78;26.92;;;;;;;;;;4434992;32;20200;-72
2021/05/15 11:08:55;;;;;;;42.00;25.12;;;;;;;;;;4436545;32;20534;-71
2021/05/15 11:11:20;;;;;;;43.22;26.73;;;;;;;;;;4429117;32;20597;-73
2021/05/15 11:13:46;;;;;;;42.53;25.00;;;;;;;;;;4434584;32;20206;-72
2021/05/15 11:16:12;;;;;;;46.85;27.73;;;;;;;;;;4422489;32;20261;-71
2021/05/15 11:18:37;;;;;;;41.13;25.17;;;;;;;;;;4436495;32;20244;-72
2021/05/15 11:21:05;;;;;;;45.97;26.58;;;;;;;;;;4438023;32;20550;-71
2021/05/15 11:23:31;;;;;;;48.00;29.05;;;;;;;;;;4434394;32;20551;-71
2021/05/15 11:26:01;;;;;;;45.28;27.10;;;;;;;;;;4433586;32;20287;-71
2021/05/15 11:28:27;;;;;;;45.78;28.02;;;;;;;;;;4437743;32;20220;-71
2021/05/15 11:30:53;;;;;;;41.65;26.33;;;;;;;;;;4453120;32;20438;-71
2021/05/15 11:33:18;;;;;;;43.83;28.27;;;;;;;;;;4443614;32;20569;-71
2021/05/15 11:35:45;;;;;;;47.35;28.62;;;;;;;;;;4435939;32;20134;-71
2021/05/15 11:38:11;;;;;;;48.65;29.80;;;;;;;;;;4437789;32;20134;-71
2021/05/15 11:40:37;;;;;;;43.92;26.55;;;;;;;;;;4436359;32;20191;-71
2021/05/15 11:43:03;;;;;;;45.20;30.12;;;;;;;;;;4428184;32;20172;-72
2021/05/15 11:45:31;;;;;;;45.35;29.30;;;;;;;;;;4422698;32;20130;-70
2021/05/15 11:48:03;;;;;;;47.40;29.75;;;;;;;;;;4420453;32;20236;-70
2021/05/15 11:50:29;;;;;;;42.17;27.02;;;;;;;;;;4407142;32;20494;-72
2021/05/15 11:52:58;;;;;;;43.80;27.50;;;;;;;;;;4407215;32;20155;-72
2021/05/15 11:55:24;;;;;;;44.22;27.27;;;;;;;;;;4407447;32;20165;-72
2021/05/15 11:57:54;;;;;;;39.47;24.80;;;;;;;;;;4422579;32;20171;-73
2021/05/15 12:00:20;;;;;;;36.20;25.27;;;;;;;;;;4422796;32;20204;-72
2021/05/15 12:02:46;;;;;;;32.42;23.73;;;;;;;;;;4420718;32;20138;-71
2021/05/15 12:05:15;;;;;;;35.25;24.17;;;;;;;;;;4420402;32;20193;-74
2021/05/15 12:07:50;;;;;;;37.58;26.67;;;;;;;;;;4427436;32;20148;-71
2021/05/15 12:10:17;;;;;;;34.78;23.92;;;;;;;;;;4435812;32;20140;-71
2021/05/15 12:12:52;;;;;;;32.60;23.02;;;;;;;;;;4435777;32;20129;-72
2021/05/15 12:15:17;;;;;;;31.70;23.02;;;;;;;;;;4431180;32;20172;-71
2021/05/15 12:17:42;;;;;;;33.63;24.35;;;;;;;;;;4421352;32;20168;-71
2021/05/15 12:20:08;;;;;;;35.70;24.00;;;;;;;;;;4412559;32;20200;-71
2021/05/15 12:22:33;;;;;;;39.63;26.75;;;;;;;;;;4435879;32;20584;-71
2021/05/15 12:25:07;;;;;;;36.15;23.92;;;;;;;;;;4419517;32;20214;-71
2021/05/15 12:27:32;;;;;;;31.87;22.33;;;;;;;;;;4421336;32;20324;-72
2021/05/15 12:30:02;;;;;;;33.15;21.87;;;;;;;;;;4433459;32;20176;-72
2021/05/15 12:32:28;;;;;;;33.60;21.87;;;;;;;;;;4420505;32;20264;-71
2021/05/15 12:35:00;;;;;;;34.00;22.83;;;;;;;;;;4419630;32;20165;-72
2021/05/15 12:37:32;;;;;;;34.55;23.55;;;;;;;;;;4418865;32;20133;-72
2021/05/15 12:40:00;;;;;;;34.97;21.45;;;;;;;;;;4425002;32;20571;-71
2021/05/15 12:42:31;;;;;;;38.47;23.62;;;;;;;;;;4434351;32;20153;-72
2021/05/15 12:45:05;;;;;;;40.20;25.52;;;;;;;;;;4433131;32;20164;-72
2021/05/15 12:47:37;;;;;;;36.85;23.30;;;;;;;;;;4422304;32;20152;-71
2021/05/15 12:50:13;;;;;;;39.35;23.35;;;;;;;;;;4434041;32;20183;-71
2021/05/15 12:52:39;;;;;;;43.78;24.40;;;;;;;;;;4407527;32;20180;-71
2021/05/15 12:55:07;;;;;;;32.22;20.17;;;;;;;;;;4403120;32;20161;-71
2021/05/15 12:57:33;;;;;;;31.92;20.10;;;;;;;;;;4419555;32;20130;-71
2021/05/15 12:59:58;;;;;;;35.67;18.43;;;;;;;;;;4418847;32;20202;-72
2021/05/15 13:02:23;;;;;;;34.10;21.12;;;;;;;;;;4420557;32;20574;-71
2021/05/15 13:04:56;;;;;;;29.33;18.35;;;;;;;;;;4420540;32;20133;-72
2021/05/15 13:07:25;;;;;;;23.95;16.15;;;;;;;;;;4419656;32;20191;-71
2021/05/15 13:09:52;;;;;;;26.00;14.48;;;;;;;;;;4405775;32;20166;-72
2021/05/15 13:12:17;;;;;;;23.60;14.32;;;;;;;;;;4420239;32;20269;-72
2021/05/15 13:14:42;;;;;;;22.58;14.65;;;;;;;;;;4419870;32;20565;-72
2021/05/15 13:17:07;;;;;;;26.20;16.55;;;;;;;;;;4419184;32;20264;-72
2021/05/15 13:19:32;;;;;;;27.60;17.25;;;;;;;;;;4419602;32;20138;-72
2021/05/15 13:21:58;;;;;;;27.00;16.73;;;;;;;;;;4418558;32;20237;-71
2021/05/15 13:24:23;;;;;;;30.17;17.80;;;;;;;;;;4420480;32;20256;-72
2021/05/15 13:26:49;;;;;;;11.63;7.53;;;;;;;;;;4419097;32;20196;-70
2021/05/15 13:29:15;;;;;;;5.60;2.28;;;;;;;;;;4419204;32;20229;-73
2021/05/15 13:31:40;;;;;;;3.15;1.98;;;;;;;;;;4418652;32;20160;-68
2021/05/15 13:34:05;;;;;;;2.92;2.10;;;;;;;;;;4418478;32;20130;-70
2021/05/15 13:36:30;;;;;;;3.03;1.85;;;;;;;;;;4420194;32;20268;-69
2021/05/15 13:38:56;;;;;;;3.97;2.55;;;;;;;;;;4427508;32;20304;-69
2021/05/15 13:41:22;;;;;;;4.70;2.80;;;;;;;;;;4419141;32;20133;-69
2021/05/15 13:43:47;;;;;;;7.07;3.42;;;;;;;;;;4418552;32;20169;-69
2021/05/15 13:46:12;;;;;;;5.20;3.05;;;;;;;;;;4402789;32;20223;-69
2021/05/15 13:48:37;;;;;;;6.60;2.42;;;;;;;;;;4417577;32;20276;-69
2021/05/15 13:51:02;;;;;;;6.50;3.60;;;;;;;;;;4418888;32;20137;-70
2021/05/15 13:53:28;;;;;;;6.43;3.58;;;;;;;;;;4418398;32;20545;-69
2021/05/15 13:55:53;;;;;;;5.97;2.60;;;;;;;;;;4417897;32;20161;-69
2021/05/15 13:58:18;;;;;;;4.43;2.72;;;;;;;;;;4417843;32;20225;-68
2021/05/15 14:00:44;;;;;;;2.78;1.83;;;;;;;;;;4418889;32;20141;-68
2021/05/15 14:03:09;;;;;;;2.03;1.40;;;;;;;;;;4419819;32;20194;-70
2021/05/15 14:05:34;;;;;;;2.12;1.52;;;;;;;;;;4416964;32;20157;-70
2021/05/15 14:07:59;;;;;;;1.98;1.35;;;;;;;;;;4423005;32;20149;-70
2021/05/15 14:10:24;;;;;;;3.47;1.87;;;;;;;;;;4429304;32;20361;-70
2021/05/15 14:12:50;;;;;;;2.25;1.20;;;;;;;;;;4424309;32;20241;-69
2021/05/15 14:15:15;;;;;;;1.92;1.17;;;;;;;;;;4434813;32;20518;-69
2021/05/15 14:17:40;;;;;;;2.08;0.88;;;;;;;;;;4433372;32;20130;-69